Hasle, Denmark
Current Conditions -  °F | °C
As of 5:50 PM on Saturday 22 Nov 2014 (Local Time) from EKRN Reporting Station
Broken Clouds Broken Clouds  
Wind Chill: 38°   Ceiling: 14000
Heat Index: 45°   Visibility: 6mi
Dew Point: 36°   Wind: 13mph
Humidity: 71%   Direction: 160°SSE
Pressure: 30.33"   Gusts: NA
Location:  55.18°N, 14.71°E
Report Text: EKRN 221650Z AUTO 16011KT 9999NDV SCT025/// BKN140///07/02 Q1027
Loading
Personal Weather Stations






























Interactive Weather Map New forecast layout! Learn more

10-Day Weather Forecast

Advertisements
Track Severe Weather on mobile